sensor_id;sensor_type;location;lat;lon;timestamp;P1;durP1;ratioP1;P2;durP2;ratioP2
817;SDS011;391;51.052;6.954;2023-04-01T00:01:52;0.90;;;0.60;;
817;SDS011;391;51.052;6.954;2023-04-01T00:03:56;1.77;;;0.60;;
817;SDS011;391;51.052;6.954;2023-04-01T00:06:00;1.63;;;0.73;;
817;SDS011;391;51.052;6.954;2023-04-01T00:08:04;1.40;;;0.70;;
817;SDS011;391;51.052;6.954;2023-04-01T00:10:08;2.20;;;0.77;;
817;SDS011;391;51.052;6.954;2023-04-01T00:12:15;0.80;;;0.60;;
817;SDS011;391;51.052;6.954;2023-04-01T00:14:18;2.23;;;0.70;;
817;SDS011;391;51.052;6.954;2023-04-01T00:16:21;1.87;;;0.70;;
817;SDS011;391;51.052;6.954;2023-04-01T00:18:25;3.00;;;1.07;;
817;SDS011;391;51.052;6.954;2023-04-01T00:20:29;1.77;;;0.73;;
817;SDS011;391;51.052;6.954;2023-04-01T00:22:32;2.03;;;0.60;;
817;SDS011;391;51.052;6.954;2023-04-01T00:24:36;1.00;;;0.63;;
817;SDS011;391;51.052;6.954;2023-04-01T00:26:40;0.80;;;0.57;;
817;SDS011;391;51.052;6.954;2023-04-01T00:28:45;1.83;;;0.60;;
817;SDS011;391;51.052;6.954;2023-04-01T00:30:49;1.43;;;0.50;;
817;SDS011;391;51.052;6.954;2023-04-01T00:32:53;1.37;;;0.60;;
817;SDS011;391;51.052;6.954;2023-04-01T00:34:57;1.67;;;0.80;;
817;SDS011;391;51.052;6.954;2023-04-01T00:37:01;1.60;;;0.57;;
817;SDS011;391;51.052;6.954;2023-04-01T00:39:04;2.37;;;0.80;;
817;SDS011;391;51.052;6.954;2023-04-01T00:41:08;2.73;;;0.60;;
817;SDS011;391;51.052;6.954;2023-04-01T00:43:17;1.00;;;0.60;;
817;SDS011;391;51.052;6.954;2023-04-01T00:45:26;0.90;;;0.60;;
817;SDS011;391;51.052;6.954;2023-04-01T00:47:32;0.80;;;0.60;;
817;SDS011;391;51.052;6.954;2023-04-01T00:49:37;2.50;;;1.20;;
817;SDS011;391;51.052;6.954;2023-04-01T00:51:43;1.27;;;0.70;;
817;SDS011;391;51.052;6.954;2023-04-01T00:53:51;1.80;;;0.70;;
817;SDS011;391;51.052;6.954;2023-04-01T00:55:58;1.13;;;0.50;;
817;SDS011;391;51.052;6.954;2023-04-01T00:58:07;1.40;;;0.70;;
817;SDS011;391;51.052;6.954;2023-04-01T01:00:14;1.40;;;0.67;;
817;SDS011;391;51.052;6.954;2023-04-01T01:02:22;1.63;;;0.50;;
817;SDS011;391;51.052;6.954;2023-04-01T01:04:26;0.80;;;0.50;;
817;SDS011;391;51.052;6.954;2023-04-01T01:06:35;1.00;;;0.60;;
817;SDS011;391;51.052;6.954;2023-04-01T01:08:49;1.90;;;0.63;;
817;SDS011;391;51.052;6.954;2023-04-01T01:11:05;1.93;;;0.60;;
817;SDS011;391;51.052;6.954;2023-04-01T01:13:15;1.17;;;0.50;;
817;SDS011;391;51.052;6.954;2023-04-01T01:15:24;0.80;;;0.70;;
817;SDS011;391;51.052;6.954;2023-04-01T01:17:35;1.10;;;0.50;;
817;SDS011;391;51.052;6.954;2023-04-01T01:19:52;1.10;;;0.60;;
817;SDS011;391;51.052;6.954;2023-04-01T01:22:32;1.50;;;0.73;;
817;SDS011;391;51.052;6.954;2023-04-01T01:24:52;1.07;;;0.60;;
817;SDS011;391;51.052;6.954;2023-04-01T01:27:11;0.80;;;0.50;;
817;SDS011;391;51.052;6.954;2023-04-01T01:29:28;2.30;;;0.90;;
817;SDS011;391;51.052;6.954;2023-04-01T01:31:47;3.03;;;0.60;;
817;SDS011;391;51.052;6.954;2023-04-01T01:34:06;1.10;;;0.53;;
817;SDS011;391;51.052;6.954;2023-04-01T01:36:21;1.20;;;0.50;;
817;SDS011;391;51.052;6.954;2023-04-01T01:38:29;0.70;;;0.50;;
817;SDS011;391;51.052;6.954;2023-04-01T01:40:39;0.97;;;0.57;;
817;SDS011;391;51.052;6.954;2023-04-01T01:42:45;4.20;;;0.77;;
817;SDS011;391;51.052;6.954;2023-04-01T01:44:52;0.90;;;0.60;;
817;SDS011;391;51.052;6.954;2023-04-01T01:46:58;0.90;;;0.60;;
817;SDS011;391;51.052;6.954;2023-04-01T01:49:03;1.30;;;0.60;;
817;SDS011;391;51.052;6.954;2023-04-01T01:51:09;0.87;;;0.50;;
817;SDS011;391;51.052;6.954;2023-04-01T01:53:15;3.13;;;0.63;;
817;SDS011;391;51.052;6.954;2023-04-01T01:55:26;2.70;;;0.57;;
817;SDS011;391;51.052;6.954;2023-04-01T01:57:32;0.90;;;0.50;;
817;SDS011;391;51.052;6.954;2023-04-01T01:59:43;0.80;;;0.50;;
817;SDS011;391;51.052;6.954;2023-04-01T02:01:57;0.80;;;0.60;;
817;SDS011;391;51.052;6.954;2023-04-01T02:04:02;1.30;;;0.50;;
817;SDS011;391;51.052;6.954;2023-04-01T02:06:08;0.80;;;0.60;;
817;SDS011;391;51.052;6.954;2023-04-01T02:08:19;5.43;;;0.60;;
817;SDS011;391;51.052;6.954;2023-04-01T02:10:25;1.60;;;0.73;;
817;SDS011;391;51.052;6.954;2023-04-01T02:12:31;1.13;;;0.90;;
817;SDS011;391;51.052;6.954;2023-04-01T02:14:39;2.23;;;1.43;;
817;SDS011;391;51.052;6.954;2023-04-01T02:16:49;2.20;;;0.80;;
817;SDS011;391;51.052;6.954;2023-04-01T02:18:56;1.00;;;0.50;;
817;SDS011;391;51.052;6.954;2023-04-01T02:21:02;0.70;;;0.50;;
817;SDS011;391;51.052;6.954;2023-04-01T02:23:07;1.20;;;0.50;;
817;SDS011;391;51.052;6.954;2023-04-01T02:25:15;0.80;;;0.50;;
817;SDS011;391;51.052;6.954;2023-04-01T02:27:21;0.70;;;0.50;;
817;SDS011;391;51.052;6.954;2023-04-01T02:29:25;1.47;;;0.50;;
817;SDS011;391;51.052;6.954;2023-04-01T02:31:28;2.80;;;0.63;;
817;SDS011;391;51.052;6.954;2023-04-01T02:33:33;0.70;;;0.50;;
817;SDS011;391;51.052;6.954;2023-04-01T02:35:36;0.90;;;0.60;;
817;SDS011;391;51.052;6.954;2023-04-01T02:37:42;0.70;;;0.50;;
817;SDS011;391;51.052;6.954;2023-04-01T02:39:46;1.27;;;0.60;;
817;SDS011;391;51.052;6.954;2023-04-01T02:41:51;1.57;;;0.50;;
817;SDS011;391;51.052;6.954;2023-04-01T02:43:55;0.80;;;0.50;;
817;SDS011;391;51.052;6.954;2023-04-01T02:46:00;0.80;;;0.50;;
817;SDS011;391;51.052;6.954;2023-04-01T02:48:04;0.87;;;0.80;;
817;SDS011;391;51.052;6.954;2023-04-01T02:50:08;0.90;;;0.50;;
817;SDS011;391;51.052;6.954;2023-04-01T02:52:12;0.70;;;0.50;;
817;SDS011;391;51.052;6.954;2023-04-01T02:54:16;0.70;;;0.50;;
817;SDS011;391;51.052;6.954;2023-04-01T02:56:19;1.60;;;0.77;;
817;SDS011;391;51.052;6.954;2023-04-01T02:58:24;2.50;;;0.70;;
817;SDS011;391;51.052;6.954;2023-04-01T03:00:28;1.03;;;0.60;;
817;SDS011;391;51.052;6.954;2023-04-01T03:02:31;0.90;;;0.60;;
817;SDS011;391;51.052;6.954;2023-04-01T03:04:35;1.23;;;0.70;;
817;SDS011;391;51.052;6.954;2023-04-01T03:06:38;2.97;;;0.80;;
817;SDS011;391;51.052;6.954;2023-04-01T03:08:42;0.90;;;0.60;;
817;SDS011;391;51.052;6.954;2023-04-01T03:10:46;1.20;;;0.70;;
817;SDS011;391;51.052;6.954;2023-04-01T03:12:49;0.80;;;0.60;;
817;SDS011;391;51.052;6.954;2023-04-01T03:14:54;0.70;;;0.50;;
817;SDS011;391;51.052;6.954;2023-04-01T03:17:12;1.53;;;0.90;;
817;SDS011;391;51.052;6.954;2023-04-01T03:19:15;0.80;;;0.60;;
817;SDS011;391;51.052;6.954;2023-04-01T03:21:19;0.90;;;0.50;;
817;SDS011;391;51.052;6.954;2023-04-01T03:23:24;0.90;;;0.60;;
817;SDS011;391;51.052;6.954;2023-04-01T03:25:27;1.07;;;0.60;;
817;SDS011;391;51.052;6.954;2023-04-01T03:27:33;1.00;;;0.50;;
817;SDS011;391;51.052;6.954;2023-04-01T03:29:37;1.30;;;0.50;;
817;SDS011;391;51.052;6.954;2023-04-01T03:31:42;0.87;;;0.50;;
817;SDS011;391;51.052;6.954;2023-04-01T03:33:45;1.07;;;0.60;;
817;SDS011;391;51.052;6.954;2023-04-01T03:35:49;2.87;;;0.50;;
817;SDS011;391;51.052;6.954;2023-04-01T03:37:54;0.70;;;0.50;;
817;SDS011;391;51.052;6.954;2023-04-01T03:39:57;0.80;;;0.50;;
817;SDS011;391;51.052;6.954;2023-04-01T03:42:01;0.90;;;0.47;;
817;SDS011;391;51.052;6.954;2023-04-01T03:44:04;0.77;;;0.47;;
817;SDS011;391;51.052;6.954;2023-04-01T03:46:08;1.00;;;0.70;;
817;SDS011;391;51.052;6.954;2023-04-01T03:48:14;0.90;;;0.60;;
817;SDS011;391;51.052;6.954;2023-04-01T03:50:18;0.87;;;0.60;;
817;SDS011;391;51.052;6.954;2023-04-01T03:52:21;0.80;;;0.53;;
817;SDS011;391;51.052;6.954;2023-04-01T03:54:24;0.70;;;0.40;;
817;SDS011;391;51.052;6.954;2023-04-01T03:56:28;0.90;;;0.50;;
817;SDS011;391;51.052;6.954;2023-04-01T03:58:31;0.97;;;0.50;;
817;SDS011;391;51.052;6.954;2023-04-01T04:00:36;0.80;;;0.50;;
817;SDS011;391;51.052;6.954;2023-04-01T04:02:40;2.23;;;0.60;;
817;SDS011;391;51.052;6.954;2023-04-01T04:04:47;0.80;;;0.50;;
817;SDS011;391;51.052;6.954;2023-04-01T04:06:51;0.70;;;0.50;;
817;SDS011;391;51.052;6.954;2023-04-01T04:08:56;0.80;;;0.50;;
817;SDS011;391;51.052;6.954;2023-04-01T04:11:01;0.80;;;0.50;;
817;SDS011;391;51.052;6.954;2023-04-01T04:13:05;0.90;;;0.50;;
817;SDS011;391;51.052;6.954;2023-04-01T04:15:17;1.00;;;0.60;;
817;SDS011;391;51.052;6.954;2023-04-01T04:17:23;0.97;;;0.50;;
817;SDS011;391;51.052;6.954;2023-04-01T04:19:31;2.43;;;0.50;;
817;SDS011;391;51.052;6.954;2023-04-01T04:21:41;0.90;;;0.60;;
817;SDS011;391;51.052;6.954;2023-04-01T04:23:45;1.30;;;0.60;;
817;SDS011;391;51.052;6.954;2023-04-01T04:25:55;1.20;;;0.50;;
817;SDS011;391;51.052;6.954;2023-04-01T04:28:00;0.70;;;0.50;;
817;SDS011;391;51.052;6.954;2023-04-01T04:30:05;1.10;;;0.90;;
817;SDS011;391;51.052;6.954;2023-04-01T04:32:11;0.77;;;0.50;;
817;SDS011;391;51.052;6.954;2023-04-01T04:34:15;0.90;;;0.50;;
817;SDS011;391;51.052;6.954;2023-04-01T04:36:24;1.33;;;0.83;;
817;SDS011;391;51.052;6.954;2023-04-01T04:38:33;0.80;;;0.50;;
817;SDS011;391;51.052;6.954;2023-04-01T04:40:39;0.90;;;0.50;;
817;SDS011;391;51.052;6.954;2023-04-01T04:42:46;0.83;;;0.50;;
817;SDS011;391;51.052;6.954;2023-04-01T04:44:54;0.90;;;0.77;;
817;SDS011;391;51.052;6.954;2023-04-01T04:46:59;0.70;;;0.50;;
817;SDS011;391;51.052;6.954;2023-04-01T04:49:04;1.23;;;0.50;;
817;SDS011;391;51.052;6.954;2023-04-01T04:51:14;0.70;;;0.50;;
817;SDS011;391;51.052;6.954;2023-04-01T04:53:21;0.70;;;0.50;;
817;SDS011;391;51.052;6.954;2023-04-01T04:55:30;0.70;;;0.50;;
817;SDS011;391;51.052;6.954;2023-04-01T04:57:55;0.90;;;0.60;;
817;SDS011;391;51.052;6.954;2023-04-01T04:59:59;0.77;;;0.60;;
817;SDS011;391;51.052;6.954;2023-04-01T05:02:18;0.70;;;0.47;;
817;SDS011;391;51.052;6.954;2023-04-01T05:04:27;0.90;;;0.50;;
817;SDS011;391;51.052;6.954;2023-04-01T05:06:35;0.70;;;0.50;;
817;SDS011;391;51.052;6.954;2023-04-01T05:08:43;0.70;;;0.50;;
817;SDS011;391;51.052;6.954;2023-04-01T05:10:53;1.67;;;0.60;;
817;SDS011;391;51.052;6.954;2023-04-01T05:12:57;0.70;;;0.50;;
817;SDS011;391;51.052;6.954;2023-04-01T05:15:01;0.80;;;0.60;;
817;SDS011;391;51.052;6.954;2023-04-01T05:17:07;1.33;;;0.60;;
817;SDS011;391;51.052;6.954;2023-04-01T05:19:12;1.00;;;0.50;;
817;SDS011;391;51.052;6.954;2023-04-01T05:21:15;1.20;;;0.60;;
817;SDS011;391;51.052;6.954;2023-04-01T05:23:19;1.10;;;0.60;;
817;SDS011;391;51.052;6.954;2023-04-01T05:25:23;0.80;;;0.60;;
817;SDS011;391;51.052;6.954;2023-04-01T05:27:28;0.80;;;0.60;;
817;SDS011;391;51.052;6.954;2023-04-01T05:29:32;1.57;;;0.50;;
817;SDS011;391;51.052;6.954;2023-04-01T05:31:40;0.73;;;0.53;;
817;SDS011;391;51.052;6.954;2023-04-01T05:33:43;0.97;;;0.80;;
817;SDS011;391;51.052;6.954;2023-04-01T05:35:47;1.53;;;0.70;;
817;SDS011;391;51.052;6.954;2023-04-01T05:37:50;1.17;;;0.60;;
817;SDS011;391;51.052;6.954;2023-04-01T05:39:55;0.80;;;0.60;;
817;SDS011;391;51.052;6.954;2023-04-01T05:42:00;2.20;;;0.90;;
817;SDS011;391;51.052;6.954;2023-04-01T05:44:05;1.40;;;0.80;;
817;SDS011;391;51.052;6.954;2023-04-01T05:46:14;0.80;;;0.70;;
817;SDS011;391;51.052;6.954;2023-04-01T05:48:27;0.83;;;0.67;;
817;SDS011;391;51.052;6.954;2023-04-01T05:50:30;2.30;;;0.70;;
817;SDS011;391;51.052;6.954;2023-04-01T05:52:34;1.53;;;0.60;;
817;SDS011;391;51.052;6.954;2023-04-01T05:54:39;0.87;;;0.63;;
817;SDS011;391;51.052;6.954;2023-04-01T05:56:43;2.10;;;0.77;;
817;SDS011;391;51.052;6.954;2023-04-01T05:58:50;2.63;;;0.73;;
817;SDS011;391;51.052;6.954;2023-04-01T06:01:02;1.10;;;0.70;;
817;SDS011;391;51.052;6.954;2023-04-01T06:03:13;0.90;;;0.70;;
817;SDS011;391;51.052;6.954;2023-04-01T06:05:18;2.03;;;1.83;;
817;SDS011;391;51.052;6.954;2023-04-01T06:07:22;1.27;;;1.10;;
817;SDS011;391;51.052;6.954;2023-04-01T06:09:28;1.70;;;0.90;;
817;SDS011;391;51.052;6.954;2023-04-01T06:11:34;1.23;;;1.13;;
817;SDS011;391;51.052;6.954;2023-04-01T06:13:49;1.00;;;0.83;;
817;SDS011;391;51.052;6.954;2023-04-01T06:16:11;0.90;;;0.80;;
817;SDS011;391;51.052;6.954;2023-04-01T06:20:57;1.20;;;0.80;;
817;SDS011;391;51.052;6.954;2023-04-01T06:23:13;1.10;;;1.00;;
817;SDS011;391;51.052;6.954;2023-04-01T06:25:40;1.20;;;1.00;;
817;SDS011;391;51.052;6.954;2023-04-01T06:27:56;1.00;;;0.80;;
817;SDS011;391;51.052;6.954;2023-04-01T06:30:16;1.43;;;0.80;;
817;SDS011;391;51.052;6.954;2023-04-01T06:32:48;1.80;;;0.70;;
817;SDS011;391;51.052;6.954;2023-04-01T06:37:59;1.27;;;0.83;;
817;SDS011;391;51.052;6.954;2023-04-01T06:40:22;1.00;;;0.70;;
817;SDS011;391;51.052;6.954;2023-04-01T06:42:50;1.30;;;0.90;;
817;SDS011;391;51.052;6.954;2023-04-01T06:45:27;1.00;;;0.80;;
817;SDS011;391;51.052;6.954;2023-04-01T06:48:02;0.97;;;0.80;;
817;SDS011;391;51.052;6.954;2023-04-01T06:50:36;1.77;;;0.90;;
817;SDS011;391;51.052;6.954;2023-04-01T06:53:05;1.30;;;1.00;;
817;SDS011;391;51.052;6.954;2023-04-01T06:55:35;1.00;;;0.90;;
817;SDS011;391;51.052;6.954;2023-04-01T06:58:13;0.97;;;0.87;;
817;SDS011;391;51.052;6.954;2023-04-01T07:00:26;1.37;;;0.90;;
817;SDS011;391;51.052;6.954;2023-04-01T07:02:34;1.20;;;0.70;;
817;SDS011;391;51.052;6.954;2023-04-01T07:04:44;1.30;;;0.87;;
817;SDS011;391;51.052;6.954;2023-04-01T07:06:52;1.20;;;0.90;;
817;SDS011;391;51.052;6.954;2023-04-01T07:08:59;1.67;;;1.30;;
817;SDS011;391;51.052;6.954;2023-04-01T07:11:28;1.50;;;1.20;;
817;SDS011;391;51.052;6.954;2023-04-01T07:14:04;2.20;;;1.27;;
817;SDS011;391;51.052;6.954;2023-04-01T07:16:15;1.47;;;1.00;;
817;SDS011;391;51.052;6.954;2023-04-01T07:18:25;3.10;;;0.97;;
817;SDS011;391;51.052;6.954;2023-04-01T07:20:40;2.20;;;1.80;;
817;SDS011;391;51.052;6.954;2023-04-01T07:22:44;2.50;;;1.40;;
817;SDS011;391;51.052;6.954;2023-04-01T07:24:57;1.30;;;1.20;;
817;SDS011;391;51.052;6.954;2023-04-01T07:27:08;2.03;;;1.40;;
817;SDS011;391;51.052;6.954;2023-04-01T07:29:14;1.47;;;1.27;;
817;SDS011;391;51.052;6.954;2023-04-01T07:31:30;1.73;;;1.40;;
817;SDS011;391;51.052;6.954;2023-04-01T07:33:45;2.17;;;1.63;;
817;SDS011;391;51.052;6.954;2023-04-01T07:35:58;1.30;;;1.20;;
817;SDS011;391;51.052;6.954;2023-04-01T07:38:13;1.30;;;1.10;;
817;SDS011;391;51.052;6.954;2023-04-01T07:40:24;1.40;;;1.30;;
817;SDS011;391;51.052;6.954;2023-04-01T07:42:39;2.30;;;1.70;;
817;SDS011;391;51.052;6.954;2023-04-01T07:44:54;1.30;;;1.10;;
817;SDS011;391;51.052;6.954;2023-04-01T07:47:30;3.47;;;1.80;;
817;SDS011;391;51.052;6.954;2023-04-01T07:49:46;2.40;;;1.80;;
817;SDS011;391;51.052;6.954;2023-04-01T07:51:59;2.63;;;1.67;;
817;SDS011;391;51.052;6.954;2023-04-01T07:54:12;1.83;;;1.70;;
817;SDS011;391;51.052;6.954;2023-04-01T07:56:25;2.40;;;1.27;;
817;SDS011;391;51.052;6.954;2023-04-01T07:58:38;2.00;;;1.17;;
817;SDS011;391;51.052;6.954;2023-04-01T08:01:05;2.17;;;1.63;;
817;SDS011;391;51.052;6.954;2023-04-01T08:03:27;2.07;;;1.80;;
817;SDS011;391;51.052;6.954;2023-04-01T08:05:43;1.73;;;1.20;;
817;SDS011;391;51.052;6.954;2023-04-01T08:07:57;1.20;;;1.03;;
817;SDS011;391;51.052;6.954;2023-04-01T08:10:45;2.87;;;1.30;;
817;SDS011;391;51.052;6.954;2023-04-01T08:13:13;2.23;;;1.50;;
817;SDS011;391;51.052;6.954;2023-04-01T08:15:44;1.73;;;1.63;;
817;SDS011;391;51.052;6.954;2023-04-01T08:18:09;1.80;;;1.30;;
817;SDS011;391;51.052;6.954;2023-04-01T08:20:23;1.70;;;1.20;;
817;SDS011;391;51.052;6.954;2023-04-01T08:22:35;1.60;;;1.17;;
817;SDS011;391;51.052;6.954;2023-04-01T08:24:53;1.70;;;1.60;;
817;SDS011;391;51.052;6.954;2023-04-01T08:27:03;1.30;;;0.77;;
817;SDS011;391;51.052;6.954;2023-04-01T08:29:15;0.90;;;0.80;;
817;SDS011;391;51.052;6.954;2023-04-01T08:31:24;1.20;;;1.10;;
817;SDS011;391;51.052;6.954;2023-04-01T08:33:33;1.10;;;1.00;;
817;SDS011;391;51.052;6.954;2023-04-01T08:35:42;1.00;;;0.90;;
817;SDS011;391;51.052;6.954;2023-04-01T08:37:52;2.10;;;1.80;;
817;SDS011;391;51.052;6.954;2023-04-01T08:40:05;1.53;;;1.43;;
817;SDS011;391;51.052;6.954;2023-04-01T08:42:36;1.13;;;0.90;;
817;SDS011;391;51.052;6.954;2023-04-01T08:45:09;1.40;;;1.10;;
817;SDS011;391;51.052;6.954;2023-04-01T08:47:32;2.70;;;2.37;;
817;SDS011;391;51.052;6.954;2023-04-01T08:50:01;1.37;;;1.00;;
817;SDS011;391;51.052;6.954;2023-04-01T08:52:35;5.47;;;4.53;;
817;SDS011;391;51.052;6.954;2023-04-01T08:54:46;1.87;;;1.43;;
817;SDS011;391;51.052;6.954;2023-04-01T08:57:18;0.83;;;0.80;;
817;SDS011;391;51.052;6.954;2023-04-01T08:59:57;1.10;;;0.97;;
817;SDS011;391;51.052;6.954;2023-04-01T09:07:36;0.80;;;0.70;;
817;SDS011;391;51.052;6.954;2023-04-01T09:09:55;1.00;;;0.80;;
817;SDS011;391;51.052;6.954;2023-04-01T09:12:33;1.83;;;0.93;;
817;SDS011;391;51.052;6.954;2023-04-01T09:15:01;0.80;;;0.80;;
817;SDS011;391;51.052;6.954;2023-04-01T09:17:30;4.47;;;3.30;;
817;SDS011;391;51.052;6.954;2023-04-01T09:20:02;1.47;;;1.20;;
817;SDS011;391;51.052;6.954;2023-04-01T09:22:22;2.63;;;2.20;;
817;SDS011;391;51.052;6.954;2023-04-01T09:24:43;0.93;;;0.83;;
817;SDS011;391;51.052;6.954;2023-04-01T09:27:05;1.00;;;0.90;;
817;SDS011;391;51.052;6.954;2023-04-01T09:29:25;0.80;;;0.80;;
817;SDS011;391;51.052;6.954;2023-04-01T09:31:50;1.97;;;0.80;;
817;SDS011;391;51.052;6.954;2023-04-01T09:34:53;1.30;;;1.20;;
817;SDS011;391;51.052;6.954;2023-04-01T09:37:08;1.07;;;0.87;;
817;SDS011;391;51.052;6.954;2023-04-01T09:39:31;1.43;;;1.10;;
817;SDS011;391;51.052;6.954;2023-04-01T09:41:44;1.60;;;1.50;;
817;SDS011;391;51.052;6.954;2023-04-01T09:44:13;1.30;;;1.20;;
817;SDS011;391;51.052;6.954;2023-04-01T09:46:42;1.70;;;1.60;;
817;SDS011;391;51.052;6.954;2023-04-01T09:51:46;1.73;;;1.63;;
817;SDS011;391;51.052;6.954;2023-04-01T09:54:01;2.13;;;1.77;;
817;SDS011;391;51.052;6.954;2023-04-01T09:56:19;1.73;;;1.63;;
817;SDS011;391;51.052;6.954;2023-04-01T09:58:55;2.13;;;1.93;;
817;SDS011;391;51.052;6.954;2023-04-01T10:01:47;1.90;;;1.80;;
817;SDS011;391;51.052;6.954;2023-04-01T10:07:16;1.73;;;1.63;;
817;SDS011;391;51.052;6.954;2023-04-01T10:09:52;1.60;;;1.50;;
817;SDS011;391;51.052;6.954;2023-04-01T10:12:33;1.77;;;1.67;;
817;SDS011;391;51.052;6.954;2023-04-01T10:17:43;2.23;;;2.10;;
817;SDS011;391;51.052;6.954;2023-04-01T10:20:06;2.63;;;2.00;;
817;SDS011;391;51.052;6.954;2023-04-01T10:24:58;1.83;;;1.73;;
817;SDS011;391;51.052;6.954;2023-04-01T10:27:30;2.30;;;2.20;;
817;SDS011;391;51.052;6.954;2023-04-01T10:33:09;3.37;;;1.33;;
817;SDS011;391;51.052;6.954;2023-04-01T10:36:04;1.90;;;1.80;;
817;SDS011;391;51.052;6.954;2023-04-01T10:38:46;1.50;;;1.40;;
817;SDS011;391;51.052;6.954;2023-04-01T10:44:17;1.70;;;1.60;;
817;SDS011;391;51.052;6.954;2023-04-01T10:47:00;1.90;;;1.80;;
817;SDS011;391;51.052;6.954;2023-04-01T10:49:44;1.77;;;1.67;;
817;SDS011;391;51.052;6.954;2023-04-01T10:52:10;1.67;;;1.57;;
817;SDS011;391;51.052;6.954;2023-04-01T11:04:12;2.67;;;2.47;;
817;SDS011;391;51.052;6.954;2023-04-01T11:07:14;2.53;;;2.33;;
817;SDS011;391;51.052;6.954;2023-04-01T11:09:47;2.10;;;1.93;;
817;SDS011;391;51.052;6.954;2023-04-01T11:15:31;3.97;;;3.67;;
817;SDS011;391;51.052;6.954;2023-04-01T11:20:37;2.70;;;2.50;;
817;SDS011;391;51.052;6.954;2023-04-01T11:23:16;2.30;;;2.20;;
817;SDS011;391;51.052;6.954;2023-04-01T11:25:35;2.53;;;2.33;;
817;SDS011;391;51.052;6.954;2023-04-01T11:28:20;3.13;;;2.80;;
817;SDS011;391;51.052;6.954;2023-04-01T11:30:41;3.10;;;2.90;;
817;SDS011;391;51.052;6.954;2023-04-01T11:32:59;2.60;;;2.40;;
817;SDS011;391;51.052;6.954;2023-04-01T11:35:12;3.90;;;3.50;;
817;SDS011;391;51.052;6.954;2023-04-01T11:37:56;3.33;;;3.03;;
817;SDS011;391;51.052;6.954;2023-04-01T11:40:26;3.70;;;3.40;;
817;SDS011;391;51.052;6.954;2023-04-01T11:42:54;3.40;;;3.10;;
817;SDS011;391;51.052;6.954;2023-04-01T11:45:41;3.00;;;2.80;;
817;SDS011;391;51.052;6.954;2023-04-01T11:48:08;3.13;;;2.93;;
817;SDS011;391;51.052;6.954;2023-04-01T11:50:40;3.13;;;2.67;;
817;SDS011;391;51.052;6.954;2023-04-01T11:55:38;2.93;;;2.73;;
817;SDS011;391;51.052;6.954;2023-04-01T11:58:07;2.87;;;2.57;;
817;SDS011;391;51.052;6.954;2023-04-01T12:03:04;2.20;;;2.00;;
817;SDS011;391;51.052;6.954;2023-04-01T12:05:26;2.63;;;2.43;;
817;SDS011;391;51.052;6.954;2023-04-01T12:07:48;3.13;;;2.53;;
817;SDS011;391;51.052;6.954;2023-04-01T12:10:01;2.43;;;2.23;;
817;SDS011;391;51.052;6.954;2023-04-01T12:12:18;2.80;;;2.60;;
817;SDS011;391;51.052;6.954;2023-04-01T12:14:31;2.20;;;2.10;;
817;SDS011;391;51.052;6.954;2023-04-01T12:16:47;2.70;;;2.50;;
817;SDS011;391;51.052;6.954;2023-04-01T12:19:03;2.63;;;2.53;;
817;SDS011;391;51.052;6.954;2023-04-01T12:21:17;3.47;;;2.70;;
817;SDS011;391;51.052;6.954;2023-04-01T12:23:35;5.27;;;4.83;;
817;SDS011;391;51.052;6.954;2023-04-01T12:26:03;3.17;;;2.87;;
817;SDS011;391;51.052;6.954;2023-04-01T12:28:33;2.10;;;2.00;;
817;SDS011;391;51.052;6.954;2023-04-01T12:30:56;2.30;;;2.10;;
817;SDS011;391;51.052;6.954;2023-04-01T12:33:24;2.00;;;1.80;;
817;SDS011;391;51.052;6.954;2023-04-01T12:35:46;1.83;;;1.73;;
817;SDS011;391;51.052;6.954;2023-04-01T12:38:04;1.83;;;1.73;;
817;SDS011;391;51.052;6.954;2023-04-01T12:40:24;2.40;;;2.20;;
817;SDS011;391;51.052;6.954;2023-04-01T12:42:44;2.90;;;2.70;;
817;SDS011;391;51.052;6.954;2023-04-01T12:45:07;2.50;;;2.30;;
817;SDS011;391;51.052;6.954;2023-04-01T12:47:42;2.33;;;2.13;;
817;SDS011;391;51.052;6.954;2023-04-01T12:50:13;2.87;;;2.67;;
817;SDS011;391;51.052;6.954;2023-04-01T12:52:24;2.73;;;2.53;;
817;SDS011;391;51.052;6.954;2023-04-01T12:54:41;4.43;;;4.03;;
817;SDS011;391;51.052;6.954;2023-04-01T12:57:12;2.70;;;2.50;;
817;SDS011;391;51.052;6.954;2023-04-01T12:59:31;2.30;;;2.20;;
817;SDS011;391;51.052;6.954;2023-04-01T13:01:51;2.47;;;2.27;;
817;SDS011;391;51.052;6.954;2023-04-01T13:04:08;1.83;;;1.70;;
817;SDS011;391;51.052;6.954;2023-04-01T13:06:38;2.20;;;2.00;;
817;SDS011;391;51.052;6.954;2023-04-01T13:08:55;2.27;;;2.17;;
817;SDS011;391;51.052;6.954;2023-04-01T13:11:08;2.50;;;2.30;;
817;SDS011;391;51.052;6.954;2023-04-01T13:13:27;2.20;;;2.10;;
817;SDS011;391;51.052;6.954;2023-04-01T13:15:44;2.40;;;2.20;;
817;SDS011;391;51.052;6.954;2023-04-01T13:18:00;2.83;;;2.63;;
817;SDS011;391;51.052;6.954;2023-04-01T13:20:14;2.37;;;2.17;;
817;SDS011;391;51.052;6.954;2023-04-01T13:22:27;3.00;;;2.80;;
817;SDS011;391;51.052;6.954;2023-04-01T13:24:40;2.83;;;2.63;;
817;SDS011;391;51.052;6.954;2023-04-01T13:26:52;2.80;;;2.53;;
817;SDS011;391;51.052;6.954;2023-04-01T13:29:01;2.70;;;2.50;;
817;SDS011;391;51.052;6.954;2023-04-01T13:31:12;2.97;;;2.77;;
817;SDS011;391;51.052;6.954;2023-04-01T13:33:30;2.70;;;2.50;;
817;SDS011;391;51.052;6.954;2023-04-01T13:35:42;2.93;;;2.63;;
817;SDS011;391;51.052;6.954;2023-04-01T13:37:59;2.70;;;2.50;;
817;SDS011;391;51.052;6.954;2023-04-01T13:40:23;3.27;;;3.07;;
817;SDS011;391;51.052;6.954;2023-04-01T13:42:37;3.27;;;2.97;;
817;SDS011;391;51.052;6.954;2023-04-01T13:44:48;3.00;;;2.80;;
817;SDS011;391;51.052;6.954;2023-04-01T13:47:03;3.60;;;3.30;;
817;SDS011;391;51.052;6.954;2023-04-01T13:49:30;3.20;;;2.90;;
817;SDS011;391;51.052;6.954;2023-04-01T13:51:57;3.80;;;3.53;;
817;SDS011;391;51.052;6.954;2023-04-01T13:54:18;4.23;;;3.60;;
817;SDS011;391;51.052;6.954;2023-04-01T13:56:41;3.00;;;2.70;;
817;SDS011;391;51.052;6.954;2023-04-01T13:59:00;3.00;;;2.80;;
817;SDS011;391;51.052;6.954;2023-04-01T14:01:13;3.77;;;3.47;;
817;SDS011;391;51.052;6.954;2023-04-01T14:03:28;3.43;;;3.23;;
817;SDS011;391;51.052;6.954;2023-04-01T14:05:53;3.40;;;3.10;;
817;SDS011;391;51.052;6.954;2023-04-01T14:08:08;3.77;;;3.47;;
817;SDS011;391;51.052;6.954;2023-04-01T14:10:22;4.00;;;3.70;;
817;SDS011;391;51.052;6.954;2023-04-01T14:12:31;3.83;;;3.53;;
817;SDS011;391;51.052;6.954;2023-04-01T14:14:47;3.20;;;3.00;;
817;SDS011;391;51.052;6.954;2023-04-01T14:17:07;3.40;;;3.10;;
817;SDS011;391;51.052;6.954;2023-04-01T14:19:23;3.97;;;3.67;;
817;SDS011;391;51.052;6.954;2023-04-01T14:21:36;2.97;;;2.77;;
817;SDS011;391;51.052;6.954;2023-04-01T14:26:30;3.27;;;2.83;;
817;SDS011;391;51.052;6.954;2023-04-01T14:28:49;3.60;;;3.30;;
817;SDS011;391;51.052;6.954;2023-04-01T14:31:15;3.70;;;2.97;;
817;SDS011;391;51.052;6.954;2023-04-01T14:33:30;3.50;;;3.20;;
817;SDS011;391;51.052;6.954;2023-04-01T14:35:41;3.33;;;3.10;;
817;SDS011;391;51.052;6.954;2023-04-01T14:38:11;2.77;;;2.57;;
817;SDS011;391;51.052;6.954;2023-04-01T14:40:55;3.80;;;3.50;;
817;SDS011;391;51.052;6.954;2023-04-01T14:43:10;7.03;;;5.33;;
817;SDS011;391;51.052;6.954;2023-04-01T14:45:33;4.37;;;4.07;;
817;SDS011;391;51.052;6.954;2023-04-01T14:47:48;4.50;;;3.97;;
817;SDS011;391;51.052;6.954;2023-04-01T14:50:02;3.33;;;3.10;;
817;SDS011;391;51.052;6.954;2023-04-01T14:52:10;4.53;;;2.73;;
817;SDS011;391;51.052;6.954;2023-04-01T14:54:21;3.40;;;3.10;;
817;SDS011;391;51.052;6.954;2023-04-01T14:56:35;3.87;;;3.40;;
817;SDS011;391;51.052;6.954;2023-04-01T14:58:42;3.60;;;3.30;;
817;SDS011;391;51.052;6.954;2023-04-01T15:00:49;3.60;;;3.30;;
817;SDS011;391;51.052;6.954;2023-04-01T15:02:59;3.43;;;3.13;;
817;SDS011;391;51.052;6.954;2023-04-01T15:05:14;3.67;;;3.37;;
817;SDS011;391;51.052;6.954;2023-04-01T15:09:59;3.47;;;3.10;;
817;SDS011;391;51.052;6.954;2023-04-01T15:12:16;3.80;;;3.50;;
817;SDS011;391;51.052;6.954;2023-04-01T15:14:36;3.40;;;3.20;;
817;SDS011;391;51.052;6.954;2023-04-01T15:16:55;4.20;;;3.80;;
817;SDS011;391;51.052;6.954;2023-04-01T15:19:12;4.40;;;4.10;;